createdAt,value
2017-11-15T00:01:50.984Z,27.20
2017-11-15T00:04:18.362Z,28.87
2017-11-15T00:06:45.677Z,30.20
2017-11-15T00:09:13.017Z,33.97
2017-11-15T00:11:40.339Z,29.47
2017-11-15T00:14:07.665Z,28.27
2017-11-15T00:16:34.998Z,38.60
2017-11-15T00:19:02.343Z,36.60
2017-11-15T00:21:29.732Z,27.80
2017-11-15T00:23:57.080Z,29.43
2017-11-15T00:26:24.434Z,32.80
2017-11-15T00:28:51.769Z,35.80
2017-11-15T00:31:19.118Z,28.70
2017-11-15T00:33:52.595Z,34.20
2017-11-15T00:36:19.916Z,29.20
2017-11-15T00:38:47.237Z,34.17
2017-11-15T00:41:20.767Z,29.10
2017-11-15T00:43:48.085Z,29.13
2017-11-15T00:46:15.450Z,35.30
2017-11-15T00:48:42.802Z,30.23
2017-11-15T00:51:10.185Z,29.63
2017-11-15T00:53:39.391Z,37.10
2017-11-15T00:56:06.712Z,27.27
2017-11-15T00:58:34.045Z,30.57
2017-11-15T01:01:01.383Z,29.23
2017-11-15T01:03:28.693Z,28.87
2017-11-15T01:05:56.053Z,31.63
2017-11-15T01:08:24.280Z,31.63
2017-11-15T01:10:51.602Z,30.57
2017-11-15T01:13:18.917Z,20.80
2017-11-15T01:15:46.297Z,27.20
2017-11-15T01:18:14.514Z,32.83
2017-11-15T01:20:41.848Z,25.30
2017-11-15T01:23:09.190Z,25.73
2017-11-15T01:25:48.820Z,27.20
2017-11-15T01:28:16.159Z,25.20
2017-11-15T01:30:43.492Z,27.37
2017-11-15T01:33:10.854Z,27.40
2017-11-15T01:35:38.191Z,23.50
2017-11-15T01:38:05.549Z,25.80
2017-11-15T01:40:32.927Z,28.30
2017-11-15T01:43:00.253Z,31.27
2017-11-15T01:45:27.632Z,29.30
2017-11-15T01:47:54.957Z,26.50
2017-11-15T01:50:22.285Z,30.23
2017-11-15T02:01:13.693Z,29.37
2017-11-15T02:03:41.038Z,28.10
2017-11-15T02:06:08.369Z,28.80
2017-11-15T02:08:35.697Z,29.80
2017-11-15T02:11:03.027Z,33.10
2017-11-15T02:13:30.351Z,33.27
2017-11-15T02:15:57.678Z,30.00
2017-11-15T02:18:25.007Z,32.93
2017-11-15T02:20:52.332Z,29.33
2017-11-15T02:23:19.675Z,31.93
2017-11-15T02:25:47.038Z,38.10
2017-11-15T02:28:14.383Z,36.60
2017-11-15T02:30:41.737Z,34.73
2017-11-15T02:33:09.098Z,34.50
2017-11-15T02:35:36.454Z,31.70
2017-11-15T02:38:03.793Z,31.93
2017-11-15T02:40:31.946Z,31.50
2017-11-15T02:42:59.335Z,32.83
2017-11-15T02:45:26.669Z,31.43
2017-11-15T02:47:54.031Z,34.47
2017-11-15T02:50:21.359Z,36.77
2017-11-15T02:52:48.710Z,36.17
2017-11-15T02:55:16.048Z,40.73
2017-11-15T02:57:43.397Z,39.83
2017-11-15T03:00:10.756Z,44.67
2017-11-15T03:02:38.082Z,42.27
2017-11-15T03:05:05.417Z,40.73
2017-11-15T03:07:32.785Z,46.70
2017-11-15T03:10:00.128Z,45.60
2017-11-15T03:12:27.515Z,44.13
2017-11-15T03:14:54.948Z,44.50
2017-11-15T03:17:22.282Z,54.90
2017-11-15T03:19:49.609Z,52.53
2017-11-15T03:22:16.929Z,59.70
2017-11-15T03:24:44.261Z,55.03
2017-11-15T03:27:11.607Z,55.70
2017-11-15T03:29:38.981Z,54.70
2017-11-15T03:32:06.322Z,52.47
2017-11-15T03:34:33.670Z,45.23
2017-11-15T03:37:01.009Z,55.90
2017-11-15T03:39:28.346Z,50.77
2017-11-15T03:41:59.442Z,46.20
2017-11-15T03:44:26.811Z,49.13
2017-11-15T03:46:54.873Z,51.80
2017-11-15T03:49:22.191Z,44.63
2017-11-15T03:51:49.529Z,49.50
2017-11-15T03:54:16.846Z,47.57
2017-11-15T03:56:44.178Z,44.07
2017-11-15T03:59:11.502Z,46.70
2017-11-15T04:01:38.830Z,41.33
2017-11-15T04:04:06.147Z,47.33
2017-11-15T04:06:33.540Z,48.10
2017-11-15T04:09:00.854Z,48.90
2017-11-15T04:11:28.206Z,44.40
2017-11-15T04:13:55.529Z,46.50
2017-11-15T04:16:26.593Z,47.53
2017-11-15T04:18:53.970Z,42.17
2017-11-15T04:21:21.290Z,49.97
2017-11-15T04:23:48.702Z,49.07
2017-11-15T04:26:16.014Z,43.80
2017-11-15T04:28:43.353Z,39.33
2017-11-15T04:31:10.698Z,43.03
2017-11-15T04:33:38.066Z,43.27
2017-11-15T04:36:05.452Z,42.40
2017-11-15T04:38:32.788Z,38.87
2017-11-15T04:41:00.149Z,42.83
2017-11-15T04:43:27.482Z,45.10
2017-11-15T04:45:54.846Z,44.23
2017-11-15T04:48:22.198Z,42.00
2017-11-15T04:50:49.538Z,40.77
2017-11-15T04:53:16.953Z,38.63
2017-11-15T04:55:44.262Z,38.90
2017-11-15T04:58:11.613Z,39.80
2017-11-15T05:00:38.978Z,39.60
2017-11-15T05:03:09.677Z,34.60
2017-11-15T05:05:37.024Z,47.07
2017-11-15T05:08:04.334Z,36.97
2017-11-15T05:10:31.689Z,35.20
2017-11-15T05:12:58.997Z,42.20
2017-11-15T05:15:26.365Z,37.47
2017-11-15T05:17:53.794Z,58.70
2017-11-15T05:20:21.121Z,41.43
2017-11-15T05:22:48.442Z,50.73
2017-11-15T05:25:15.781Z,38.57
2017-11-15T05:27:43.119Z,42.40
2017-11-15T05:30:10.451Z,44.10
2017-11-15T05:32:37.766Z,33.60
2017-11-15T05:35:06.011Z,42.90
2017-11-15T05:37:36.447Z,36.20
2017-11-15T05:40:03.781Z,42.00
2017-11-15T05:42:34.744Z,38.00
2017-11-15T05:45:07.993Z,38.03
2017-11-15T05:47:37.241Z,37.20
2017-11-15T05:50:09.565Z,34.73
2017-11-15T05:52:36.903Z,38.43
2017-11-15T05:55:07.902Z,40.90
2017-11-15T05:57:42.366Z,34.03
2017-11-15T06:00:09.697Z,38.53
2017-11-15T06:02:37.016Z,38.60
2017-11-15T06:05:04.361Z,41.67
2017-11-15T06:07:35.041Z,41.00
2017-11-15T06:10:02.473Z,36.50
2017-11-15T06:12:29.717Z,37.43
2017-11-15T06:14:57.033Z,40.57
2017-11-15T06:17:24.472Z,37.80
2017-11-15T06:19:51.757Z,42.03
2017-11-15T06:22:19.050Z,38.70
2017-11-15T06:24:46.465Z,40.57
2017-11-15T06:27:13.797Z,36.33
2017-11-15T06:29:41.104Z,36.73
2017-11-15T06:32:08.497Z,44.50
2017-11-15T06:34:35.807Z,41.90
2017-11-15T06:37:03.299Z,39.67
2017-11-15T06:39:36.819Z,35.37
2017-11-15T06:42:04.142Z,38.10
2017-11-15T06:44:35.134Z,40.53
2017-11-15T06:47:02.636Z,39.07
2017-11-15T06:49:29.992Z,42.30
2017-11-15T06:51:57.316Z,42.93
2017-11-15T06:54:24.675Z,39.70
2017-11-15T06:56:52.054Z,43.17
2017-11-15T06:59:19.479Z,43.97
2017-11-15T07:01:50.375Z,43.20
2017-11-15T07:04:20.902Z,35.50
2017-11-15T07:06:48.237Z,40.63
2017-11-15T07:09:15.559Z,37.70
2017-11-15T07:11:42.915Z,35.20
2017-11-15T07:14:10.254Z,41.33
2017-11-15T07:16:41.025Z,40.87
2017-11-15T07:19:10.249Z,39.37
2017-11-15T07:21:38.474Z,41.23
2017-11-15T07:24:06.726Z,40.93
2017-11-15T07:26:34.063Z,49.30
2017-11-15T07:29:01.391Z,44.70
2017-11-15T07:31:28.722Z,40.10
2017-11-15T07:33:56.086Z,46.23
2017-11-15T07:36:26.391Z,41.40
2017-11-15T07:38:53.738Z,43.97
2017-11-15T07:41:21.101Z,42.30
2017-11-15T07:43:48.454Z,45.30
2017-11-15T07:46:15.810Z,45.10
2017-11-15T07:48:43.638Z,42.37
2017-11-15T07:51:11.012Z,35.47
2017-11-15T07:53:38.346Z,37.57
2017-11-15T07:56:05.714Z,46.40
2017-11-15T07:58:33.054Z,42.30
2017-11-15T08:01:00.372Z,37.27
2017-11-15T08:03:28.598Z,41.63
2017-11-15T08:05:55.910Z,45.20
2017-11-15T08:08:23.271Z,40.87
2017-11-15T08:10:50.609Z,38.63
2017-11-15T08:13:17.952Z,44.27
2017-11-15T08:15:45.269Z,38.77
2017-11-15T08:18:12.707Z,48.13
2017-11-15T08:20:40.027Z,49.87
2017-11-15T08:23:07.361Z,40.57
2017-11-15T08:25:34.717Z,47.83
2017-11-15T08:28:02.055Z,45.93
2017-11-15T08:30:29.402Z,45.47
2017-11-15T08:32:56.773Z,49.83
2017-11-15T08:35:24.153Z,41.97
2017-11-15T08:37:51.514Z,35.87
2017-11-15T08:40:18.850Z,41.00
2017-11-15T08:42:46.162Z,38.03
2017-11-15T08:45:13.496Z,40.90
2017-11-15T08:47:40.822Z,38.90
2017-11-15T08:50:08.177Z,48.73
2017-11-15T08:52:35.486Z,49.70
2017-11-15T08:55:02.855Z,42.67
2017-11-15T08:57:30.181Z,42.60
2017-11-15T08:59:59.413Z,41.70
2017-11-15T09:02:26.792Z,48.37
2017-11-15T09:04:57.771Z,45.33
2017-11-15T09:07:25.086Z,46.90
2017-11-15T09:09:52.423Z,49.27
2017-11-15T09:12:19.739Z,48.03
2017-11-15T09:14:50.418Z,44.83
2017-11-15T09:17:18.672Z,44.03
2017-11-15T09:19:49.813Z,42.13
2017-11-15T09:22:17.161Z,48.67
2017-11-15T09:24:44.505Z,40.63
2017-11-15T09:27:11.883Z,41.80
2017-11-15T09:29:39.211Z,34.43
2017-11-15T09:32:06.543Z,35.33
2017-11-15T09:34:33.918Z,38.53
2017-11-15T09:37:02.161Z,40.73
2017-11-15T09:39:29.488Z,42.10
2017-11-15T09:41:56.851Z,36.80
2017-11-15T09:44:24.170Z,39.20
2017-11-15T09:46:51.555Z,37.23
2017-11-15T09:49:18.905Z,33.33
2017-11-15T09:51:46.375Z,33.23
2017-11-15T09:54:13.993Z,37.50
2017-11-15T09:56:41.351Z,41.93
2017-11-15T09:59:14.926Z,40.10
2017-11-15T10:01:42.242Z,39.77
2017-11-15T10:04:11.465Z,45.77
2017-11-15T10:06:38.809Z,38.80
2017-11-15T10:09:07.090Z,37.40
2017-11-15T10:11:34.414Z,39.90
2017-11-15T10:14:07.507Z,45.03
2017-11-15T10:16:34.801Z,36.90
2017-11-15T10:19:07.857Z,36.00
2017-11-15T10:21:35.174Z,31.23
2017-11-15T10:24:02.542Z,37.47
2017-11-15T10:26:33.159Z,34.23
2017-11-15T10:29:00.538Z,34.43
2017-11-15T10:31:27.856Z,42.93
2017-11-15T10:33:55.202Z,34.60
2017-11-15T10:36:22.541Z,41.30
2017-11-15T10:38:56.003Z,32.23
2017-11-15T10:41:26.793Z,39.07
2017-11-15T10:43:54.145Z,37.65
2017-11-15T10:46:21.536Z,38.27
2017-11-15T10:48:48.865Z,36.07
2017-11-15T10:51:16.298Z,42.60
2017-11-15T10:53:43.609Z,41.10
2017-11-15T10:56:14.542Z,36.60
2017-11-15T10:58:41.862Z,33.10
2017-11-15T11:01:09.235Z,34.57
2017-11-15T11:03:36.559Z,42.00
2017-11-15T11:06:20.317Z,35.77
2017-11-15T11:08:47.671Z,37.20
2017-11-15T11:11:15.082Z,34.80
2017-11-15T11:13:42.571Z,34.20
2017-11-15T11:16:09.996Z,40.50
2017-11-15T11:18:37.464Z,33.93
2017-11-15T11:21:08.283Z,33.27
2017-11-15T11:23:35.596Z,35.00
2017-11-15T11:26:03.001Z,33.20
2017-11-15T11:28:30.323Z,39.40
2017-11-15T11:30:57.660Z,38.10
2017-11-15T11:33:25.006Z,32.27
2017-11-15T11:35:52.362Z,29.50
2017-11-15T11:38:19.750Z,33.73
2017-11-15T11:40:47.074Z,34.80
2017-11-15T11:43:15.635Z,36.97
2017-11-15T11:45:42.958Z,35.83
2017-11-15T11:48:10.302Z,28.83
2017-11-15T11:50:38.577Z,31.73
2017-11-15T11:53:09.000Z,34.00
2017-11-15T11:55:36.329Z,33.87
2017-11-15T11:58:10.844Z,40.43
2017-11-15T12:00:38.182Z,31.17
2017-11-15T12:03:05.557Z,36.73
2017-11-15T12:05:32.890Z,34.15
2017-11-15T12:08:00.231Z,32.27
2017-11-15T12:10:29.454Z,31.17
2017-11-15T12:12:58.702Z,33.40
2017-11-15T12:15:26.122Z,31.07
2017-11-15T12:17:53.477Z,28.67
2017-11-15T12:20:20.842Z,33.33
2017-11-15T12:22:48.167Z,30.27
2017-11-15T12:25:18.750Z,30.83
2017-11-15T12:27:46.078Z,25.33
2017-11-15T12:30:16.931Z,28.73
2017-11-15T12:32:44.273Z,33.93
2017-11-15T12:35:11.598Z,29.87
2017-11-15T12:40:25.049Z,30.97
2017-11-15T12:42:52.394Z,30.50
2017-11-15T12:45:19.897Z,31.83
2017-11-15T12:47:47.214Z,29.77
2017-11-15T12:50:14.678Z,27.93
2017-11-15T12:52:42.015Z,25.63
2017-11-15T12:55:09.453Z,26.73
2017-11-15T12:57:36.782Z,31.93
2017-11-15T13:00:07.814Z,29.00
2017-11-15T13:02:35.145Z,30.17
2017-11-15T13:05:02.454Z,30.13
2017-11-15T13:07:29.830Z,27.57
2017-11-15T13:10:08.230Z,29.80
2017-11-15T13:12:39.306Z,29.53
2017-11-15T13:15:08.510Z,25.53
2017-11-15T13:17:35.846Z,24.90
2017-11-15T13:20:03.512Z,32.93
2017-11-15T13:22:31.228Z,29.37
2017-11-15T13:25:02.518Z,28.33
2017-11-15T13:27:33.260Z,35.70
2017-11-15T13:30:00.583Z,30.00
2017-11-15T13:32:34.300Z,29.27
2017-11-15T13:35:07.951Z,29.80
2017-11-15T13:40:21.866Z,31.43
2017-11-15T13:42:54.383Z,32.23
2017-11-15T13:45:22.611Z,27.50
2017-11-15T13:48:03.194Z,30.53
2017-11-15T13:50:33.616Z,34.43
2017-11-15T13:53:07.106Z,32.70
2017-11-15T13:55:48.216Z,32.37
2017-11-15T13:58:21.544Z,28.60
2017-11-15T14:00:59.326Z,30.10
2017-11-15T14:03:26.657Z,27.37
2017-11-15T14:05:57.244Z,28.07
2017-11-15T14:08:34.577Z,33.93
2017-11-15T14:11:08.413Z,29.00
2017-11-15T14:13:35.738Z,32.03
2017-11-15T14:16:03.061Z,29.57
2017-11-15T14:18:30.395Z,27.90
2017-11-15T14:20:57.781Z,36.23
2017-11-15T14:23:25.264Z,28.37
2017-11-15T14:25:52.669Z,26.67
2017-11-15T14:28:20.033Z,27.73
2017-11-15T14:30:47.472Z,32.60
2017-11-15T14:33:14.851Z,29.67
2017-11-15T14:35:42.248Z,30.53
2017-11-15T14:38:09.610Z,29.10
2017-11-15T14:40:39.956Z,27.20
2017-11-15T14:43:07.448Z,28.53
2017-11-15T14:45:34.910Z,30.00
2017-11-15T14:48:02.338Z,27.93
2017-11-15T14:50:29.729Z,34.73
2017-11-15T14:52:58.086Z,31.47
2017-11-15T14:55:25.425Z,34.37
2017-11-15T14:57:52.820Z,33.10
2017-11-15T15:00:20.157Z,26.90
2017-11-15T15:02:47.548Z,29.80
2017-11-15T15:05:14.859Z,34.03
2017-11-15T15:07:42.206Z,30.33
2017-11-15T15:10:09.644Z,29.63
2017-11-15T15:12:37.059Z,28.03
2017-11-15T15:15:04.420Z,27.93
2017-11-15T15:17:31.837Z,27.93
2017-11-15T15:19:59.646Z,35.67
2017-11-15T15:22:26.984Z,32.40
2017-11-15T15:24:54.585Z,31.27
2017-11-15T15:27:21.924Z,28.03
2017-11-15T15:29:49.248Z,27.87
2017-11-15T15:32:16.609Z,30.17
2017-11-15T15:34:44.058Z,28.40
2017-11-15T15:37:11.558Z,28.13
2017-11-15T15:39:38.925Z,33.37
2017-11-15T15:42:08.367Z,32.97
2017-11-15T15:44:35.774Z,34.40
2017-11-15T15:47:03.128Z,30.90
2017-11-15T15:49:30.549Z,42.33
2017-11-15T15:52:03.868Z,40.90
2017-11-15T15:54:34.667Z,40.90
2017-11-15T15:57:05.222Z,31.10
2017-11-15T15:59:32.558Z,38.03
2017-11-15T16:01:59.909Z,43.70
2017-11-15T16:04:27.257Z,42.87
2017-11-15T16:06:54.625Z,41.33
2017-11-15T16:09:21.938Z,38.90
2017-11-15T16:11:52.805Z,40.70
2017-11-15T16:14:20.103Z,39.80
2017-11-15T16:16:49.333Z,38.73
2017-11-15T16:19:16.661Z,36.70
2017-11-15T16:21:47.812Z,35.27
2017-11-15T16:24:15.165Z,40.73
2017-11-15T16:26:46.254Z,41.70
2017-11-15T16:29:13.605Z,42.33
2017-11-15T16:31:44.602Z,46.10
2017-11-15T16:34:11.986Z,53.50
2017-11-15T16:36:39.409Z,53.63
2017-11-15T16:39:06.815Z,40.27
2017-11-15T16:41:34.194Z,52.50
2017-11-15T16:44:15.764Z,44.70
2017-11-15T16:46:43.101Z,57.93
2017-11-15T16:49:17.266Z,57.83
2017-11-15T16:51:44.610Z,47.77
2017-11-15T16:54:19.482Z,46.70
2017-11-15T16:56:46.845Z,49.70
2017-11-15T16:59:14.222Z,51.60
2017-11-15T17:01:41.557Z,54.77
2017-11-15T17:04:09.229Z,57.07
2017-11-15T17:06:45.121Z,54.57
2017-11-15T17:09:12.447Z,47.03
2017-11-15T17:11:39.767Z,41.10
2017-11-15T17:14:13.894Z,64.90
2017-11-15T17:16:41.211Z,54.00
2017-11-15T17:19:14.311Z,50.33
2017-11-15T17:21:42.509Z,51.30
2017-11-15T17:24:10.151Z,48.70
2017-11-15T17:26:38.395Z,56.30
2017-11-15T17:29:05.730Z,49.47
2017-11-15T17:31:33.045Z,48.70
2017-11-15T17:34:06.597Z,54.93
2017-11-15T17:36:37.429Z,48.73
2017-11-15T17:39:08.134Z,45.00
2017-11-15T17:41:37.417Z,45.27
2017-11-15T17:44:08.406Z,38.20
2017-11-15T17:46:35.722Z,40.97
2017-11-15T17:49:03.049Z,49.80
2017-11-15T17:51:30.415Z,64.57
2017-11-15T17:53:57.741Z,48.70
2017-11-15T17:56:25.103Z,51.17
2017-11-15T17:58:52.432Z,49.20
2017-11-15T18:01:19.803Z,45.73
2017-11-15T18:03:47.131Z,44.20
2017-11-15T18:06:14.454Z,48.93
2017-11-15T18:08:41.778Z,48.03
2017-11-15T18:11:09.166Z,50.10
2017-11-15T18:13:36.483Z,45.23
2017-11-15T18:16:03.849Z,46.90
2017-11-15T18:18:31.188Z,49.43
2017-11-15T18:20:59.438Z,43.40
2017-11-15T18:23:29.822Z,55.20
2017-11-15T18:26:00.569Z,49.50
2017-11-15T18:28:27.886Z,44.60
2017-11-15T18:30:55.248Z,45.60
2017-11-15T18:33:22.655Z,44.93
2017-11-15T18:35:49.998Z,49.47
2017-11-15T18:38:17.318Z,50.50
2017-11-15T18:40:44.684Z,49.33
2017-11-15T18:43:12.018Z,43.07
2017-11-15T18:45:39.362Z,45.60
2017-11-15T18:48:06.734Z,43.83
2017-11-15T18:50:34.067Z,47.83
2017-11-15T18:53:01.491Z,45.73
2017-11-15T18:55:28.816Z,42.30
2017-11-15T18:57:56.145Z,44.53
2017-11-15T19:00:23.458Z,50.40
2017-11-15T19:02:50.969Z,50.00
2017-11-15T19:05:18.318Z,49.03
2017-11-15T19:07:45.671Z,46.20
2017-11-15T19:10:12.997Z,49.70
2017-11-15T19:12:43.362Z,50.20
2017-11-15T19:15:10.694Z,51.20
2017-11-15T19:17:38.075Z,49.57
2017-11-15T19:20:05.387Z,48.63
2017-11-15T19:22:32.746Z,50.47
2017-11-15T19:25:00.167Z,49.63
2017-11-15T19:27:27.490Z,47.53
2017-11-15T19:29:55.734Z,48.13
2017-11-15T19:32:23.074Z,50.67
2017-11-15T19:34:50.405Z,48.03
2017-11-15T19:37:18.216Z,46.70
2017-11-15T19:39:45.595Z,45.47
2017-11-15T19:42:12.916Z,48.63
2017-11-15T19:44:42.198Z,50.07
2017-11-15T19:47:09.568Z,51.30
2017-11-15T19:49:36.929Z,49.47
2017-11-15T19:52:04.287Z,47.60
2017-11-15T19:54:31.707Z,51.50
2017-11-15T19:56:59.052Z,48.63
2017-11-15T19:59:26.425Z,56.50
2017-11-15T20:01:59.589Z,50.73
2017-11-15T20:04:26.968Z,54.83
2017-11-15T20:06:54.327Z,52.40
2017-11-15T20:09:21.744Z,57.67
2017-11-15T20:11:49.073Z,53.63
2017-11-15T20:14:16.384Z,49.67
2017-11-15T20:16:43.737Z,53.67
2017-11-15T20:19:11.089Z,61.53
2017-11-15T20:21:38.439Z,56.27
2017-11-15T20:24:06.650Z,61.13
2017-11-15T20:26:40.428Z,70.17
2017-11-15T20:29:07.740Z,63.47
2017-11-15T20:31:35.113Z,65.80
2017-11-15T20:34:02.476Z,63.83
2017-11-15T20:36:29.882Z,73.37
2017-11-15T20:39:00.465Z,58.83
2017-11-15T20:41:27.777Z,54.00
2017-11-15T20:43:55.111Z,58.63
2017-11-15T20:46:26.086Z,60.23
2017-11-15T20:48:53.442Z,63.13
2017-11-15T20:51:20.758Z,62.17
2017-11-15T20:53:49.061Z,54.30
2017-11-15T20:56:16.424Z,54.37
2017-11-15T20:58:43.760Z,61.23
2017-11-15T21:01:11.098Z,55.67
2017-11-15T21:03:43.079Z,58.53
2017-11-15T21:06:10.450Z,58.83
2017-11-15T21:08:37.774Z,60.80
2017-11-15T21:11:05.150Z,64.87
2017-11-15T21:13:32.503Z,71.50
2017-11-15T21:15:59.826Z,81.53
2017-11-15T21:18:27.191Z,65.30
2017-11-15T21:20:56.400Z,70.30
2017-11-15T21:23:23.737Z,64.17
2017-11-15T21:25:57.169Z,79.20
2017-11-15T21:28:24.482Z,64.43
2017-11-15T21:30:58.234Z,72.07
2017-11-15T21:33:26.185Z,60.27
2017-11-15T21:36:03.493Z,64.63
2017-11-15T21:38:35.422Z,72.17
2017-11-15T21:41:02.761Z,65.93
2017-11-15T21:43:30.159Z,66.83
2017-11-15T21:45:57.495Z,75.03
2017-11-15T21:48:28.323Z,66.80
2017-11-15T21:50:55.646Z,68.13
2017-11-15T21:53:22.963Z,71.00
2017-11-15T21:55:50.306Z,74.90
2017-11-15T21:58:17.613Z,71.77
2017-11-15T22:00:45.043Z,72.70
2017-11-15T22:03:12.808Z,82.37
2017-11-15T22:05:40.185Z,85.57
2017-11-15T22:08:07.603Z,75.77
2017-11-15T22:10:34.961Z,78.43
2017-11-15T22:13:02.348Z,88.63
2017-11-15T22:15:29.678Z,75.63
2017-11-15T22:17:57.019Z,74.10
2017-11-15T22:20:24.346Z,76.20
2017-11-15T22:22:55.078Z,72.50
2017-11-15T22:25:22.493Z,75.63
2017-11-15T22:27:49.850Z,76.17
2017-11-15T22:30:17.285Z,87.50
2017-11-15T22:32:45.570Z,86.97
2017-11-15T22:35:12.932Z,90.53
2017-11-15T22:37:46.146Z,95.93
2017-11-15T22:40:16.935Z,90.03
2017-11-15T22:42:46.216Z,103.93
2017-11-15T22:45:13.590Z,96.00
2017-11-15T22:47:40.935Z,99.70
2017-11-15T22:50:08.348Z,120.40
2017-11-15T22:52:35.727Z,115.83
2017-11-15T22:55:03.067Z,119.80
2017-11-15T22:57:34.055Z,94.37
2017-11-15T23:00:04.603Z,99.63
2017-11-15T23:02:31.987Z,137.77
2017-11-15T23:05:06.396Z,147.17
2017-11-15T23:07:33.828Z,173.73
2017-11-15T23:10:01.314Z,103.43
2017-11-15T23:12:28.708Z,188.70
2017-11-15T23:14:56.156Z,124.60
2017-11-15T23:17:23.537Z,213.63
2017-11-15T23:19:50.916Z,206.17
2017-11-15T23:22:18.277Z,153.53
2017-11-15T23:24:48.863Z,120.40
2017-11-15T23:27:16.242Z,116.47
2017-11-15T23:29:43.595Z,135.40
2017-11-15T23:32:10.954Z,132.47
2017-11-15T23:34:38.327Z,111.10
2017-11-15T23:37:05.682Z,115.37
2017-11-15T23:39:33.028Z,175.00
2017-11-15T23:42:00.443Z,105.63
2017-11-15T23:44:27.803Z,108.63
2017-11-15T23:46:55.148Z,172.03
2017-11-15T23:49:22.472Z,122.90
2017-11-15T23:51:49.820Z,139.43
2017-11-15T23:54:17.859Z,123.87
2017-11-15T23:56:45.189Z,117.00
2017-11-15T23:59:13.034Z,229.60
